Accueil
METAR-TAF:

METAR-TAF

Aéroports :

Rugby, Dakota du Nord, États-Unis

latitude: 48-23-25N, longitude: 100-01-27W, altitude: 472 m

Observation

Le bulletin a été fait il y a 28 minutes, à 00:35 UTC
Vent 8 kt de sud-ouest
Température -18°C
Humidité 84%
Pression 1034 hPa
Visibilité: 16.1 km
Ciel clair

METAR: KRUG 120035Z AUTO 22008KT 10SM CLR M18/M20 A3053 RMK AO2

Heure: 19:03 (01:03 UTC)


TAF: absent

Observations et prévisions météorologiques de plus de 4000 aéroports (messages METAR et TAF).

Les stations disponibles sont représentées par des disques jaunes et rouges sur la carte.

Passer la souris dessus pour voir le nom de la station.

Cliquer dessus pour voir les observations et prévisions météorologiques.

Pour changer de carte: cliquez sur les boutons verts avec une croix noire pour zoomer, sur le bouton vert avec un tiret pour effectuer un zoom arrière, ou sur les flèches vertes pour les cartes adjacentes.


METAR-TAF: